Time;durP1;ratioP1;P1;durP2;ratioP2;P2;SDS_P1;SDS_P2;PMS_P1;PMS_P2;Temp;Humidity;BMP_temperature;BMP_pressure;BME280_temperature;BME280_humidity;BME280_pressure;Samples;Min_cycle;Max_cycle;Signal;HPM_P1;HPM_P2
2022/12/13 00:01:32;;;;;;;89.70;41.17;;;-4.20;99.90;;;;;;5084170;28;20208;-68
2022/12/13 00:04:02;;;;;;;88.60;40.80;;;-4.20;99.90;;;;;;5089666;28;20227;-68
2022/12/13 00:06:30;;;;;;;84.07;41.97;;;-4.20;99.90;;;;;;5086700;28;20207;-69
2022/12/13 00:08:57;;;;;;;79.80;39.30;;;-4.20;99.90;;;;;;5085312;28;20206;-69
2022/12/13 00:11:24;;;;;;;87.50;40.00;;;-4.20;99.90;;;;;;5082010;28;20671;-68
2022/12/13 00:13:51;;;;;;;93.57;41.60;;;;;;;;;;5085716;28;20211;-72
2022/12/13 00:16:23;;;;;;;81.10;38.97;;;-4.30;99.90;;;;;;5081462;28;20318;-68
2022/12/13 00:18:54;;;;;;;87.23;42.10;;;-4.30;99.90;;;;;;5085455;28;20782;-68
2022/12/13 00:21:24;;;;;;;79.43;39.67;;;-4.30;99.90;;;;;;5086106;28;20294;-68
2022/12/13 00:23:51;;;;;;;76.77;40.77;;;-4.40;99.90;;;;;;5084920;28;20304;-68
2022/12/13 00:26:31;;;;;;;92.53;40.27;;;-4.20;99.90;;;;;;5082817;28;20203;-68
2022/12/13 00:29:00;;;;;;;79.00;39.13;;;-4.40;99.90;;;;;;5085227;28;20286;-69
2022/12/13 00:31:30;;;;;;;91.97;40.30;;;-4.20;99.90;;;;;;5082383;28;20202;-68
2022/12/13 00:34:17;;;;;;;75.23;37.63;;;-4.30;99.90;;;;;;5087050;28;20211;-68
2022/12/13 00:36:45;;;;;;;87.80;38.53;;;-4.40;99.90;;;;;;5082615;28;20645;-68
2022/12/13 00:39:13;;;;;;;86.13;38.37;;;-4.50;99.90;;;;;;5068903;28;20282;-68
2022/12/13 00:41:40;;;;;;;83.47;38.50;;;-4.40;99.90;;;;;;5089439;28;20298;-68
2022/12/13 00:44:08;;;;;;;86.07;36.37;;;-4.30;99.90;;;;;;5084936;28;20207;-68
2022/12/13 00:46:35;;;;;;;75.07;36.03;;;-4.40;99.90;;;;;;5087357;28;20239;-68
2022/12/13 00:49:03;;;;;;;81.57;37.50;;;-4.40;99.90;;;;;;5084919;28;20294;-68
2022/12/13 00:51:32;;;;;;;76.37;35.97;;;-4.50;99.90;;;;;;5086852;28;20208;-67
2022/12/13 00:54:00;;;;;;;72.60;34.93;;;-4.40;99.90;;;;;;5070855;28;20283;-68
2022/12/13 00:56:29;;;;;;;73.67;34.83;;;-4.50;99.90;;;;;;5084748;28;21035;-68
2022/12/13 00:58:56;;;;;;;75.37;33.83;;;-4.50;99.90;;;;;;5085122;28;20284;-67
2022/12/13 01:01:28;;;;;;;70.43;34.13;;;-4.60;99.90;;;;;;5085452;28;20284;-67
2022/12/13 01:03:57;;;;;;;69.50;32.80;;;-4.50;99.90;;;;;;5077001;28;20255;-67
2022/12/13 01:06:24;;;;;;;74.63;34.03;;;-4.60;99.90;;;;;;5084766;28;20210;-69
2022/12/13 01:08:51;;;;;;;71.97;33.30;;;-4.50;99.90;;;;;;5082400;28;20212;-67
2022/12/13 01:11:18;;;;;;;69.60;33.53;;;-4.50;99.90;;;;;;5086345;28;20689;-67
2022/12/13 01:13:44;;;;;;;72.40;34.87;;;-4.50;99.90;;;;;;5089670;28;20312;-67
2022/12/13 01:16:12;;;;;;;66.20;32.10;;;-4.50;99.90;;;;;;5087343;28;20223;-67
2022/12/13 01:18:39;;;;;;;70.37;33.27;;;-4.50;99.90;;;;;;5086439;28;20539;-67
2022/12/13 01:21:12;;;;;;;69.50;31.87;;;-4.50;99.90;;;;;;5087814;28;20202;-68
2022/12/13 01:23:39;;;;;;;69.17;32.63;;;-4.50;99.90;;;;;;5083937;28;20293;-68
2022/12/13 01:26:12;;;;;;;66.13;30.07;;;-4.60;99.90;;;;;;5085530;28;20289;-68
2022/12/13 01:28:39;;;;;;;61.10;29.97;;;-4.70;99.90;;;;;;5083544;28;20281;-68
2022/12/13 01:31:09;;;;;;;64.87;31.13;;;-4.70;99.90;;;;;;5085740;28;20210;-68
2022/12/13 01:33:37;;;;;;;64.73;30.30;;;-4.70;99.90;;;;;;5085246;28;20210;-67
2022/12/13 01:36:07;;;;;;;74.27;32.20;;;-4.70;99.90;;;;;;5085926;28;20721;-68
2022/12/13 01:38:34;;;;;;;59.40;30.60;;;-4.70;99.90;;;;;;5066380;28;20280;-67
2022/12/13 01:41:04;;;;;;;63.77;30.43;;;-4.80;99.90;;;;;;5086872;28;20292;-70
2022/12/13 01:43:43;;;;;;;57.93;32.63;;;-4.70;99.90;;;;;;5083250;28;20283;-69
2022/12/13 01:46:11;;;;;;;64.77;32.07;;;-4.80;99.90;;;;;;5088474;28;20779;-69
2022/12/13 01:48:46;;;;;;;62.03;31.50;;;-4.70;99.90;;;;;;5069847;28;20202;-67
2022/12/13 01:51:17;;;;;;;68.87;30.63;;;-4.80;99.90;;;;;;5089722;28;20206;-67
2022/12/13 01:53:47;;;;;;;69.53;29.20;;;-4.70;99.90;;;;;;5079873;28;20206;-69
2022/12/13 01:56:20;;;;;;;65.27;31.23;;;-4.70;99.90;;;;;;5087905;28;20210;-69
2022/12/13 01:58:49;;;;;;;60.83;29.07;;;-4.80;99.90;;;;;;5087821;28;20274;-67
2022/12/13 02:01:16;;;;;;;58.67;30.20;;;-4.80;99.90;;;;;;5088881;28;20221;-68
2022/12/13 02:03:44;;;;;;;59.37;28.87;;;-4.80;99.90;;;;;;5074975;28;20251;-69
2022/12/13 02:06:16;;;;;;;66.93;30.33;;;-4.90;99.90;;;;;;5089128;28;20196;-68
2022/12/13 02:08:44;;;;;;;68.53;31.60;;;-4.90;99.90;;;;;;5089213;28;20252;-68
2022/12/13 02:11:14;;;;;;;70.83;30.30;;;-5.00;99.90;;;;;;5092090;28;20200;-68
2022/12/13 02:13:41;;;;;;;66.60;31.10;;;-4.90;99.90;;;;;;5092645;28;20287;-68
2022/12/13 02:16:45;;;;;;;69.20;33.03;;;-4.90;99.90;;;;;;5089557;28;20203;-68
2022/12/13 02:19:49;;;;;;;73.97;34.43;;;-4.90;99.90;;;;;;5088310;28;20208;-68
2022/12/13 02:22:29;;;;;;;96.90;42.40;;;-4.90;99.90;;;;;;5089923;28;20563;-68
2022/12/13 02:25:11;;;;;;;87.23;37.93;;;-5.00;99.90;;;;;;5089683;28;20238;-68
2022/12/13 02:28:04;;;;;;;75.30;31.80;;;-5.10;99.90;;;;;;5084244;28;20267;-68
2022/12/13 02:30:54;;;;;;;75.67;32.90;;;-5.10;99.90;;;;;;5087590;28;20197;-69
2022/12/13 02:33:28;;;;;;;73.97;33.27;;;-5.10;99.90;;;;;;5083056;28;20275;-69
2022/12/13 02:36:14;;;;;;;68.40;31.27;;;-5.10;99.90;;;;;;5088459;28;20242;-68
2022/12/13 02:39:16;;;;;;;63.87;31.00;;;-5.10;99.90;;;;;;5086679;28;20217;-69
2022/12/13 02:42:24;;;;;;;67.87;31.03;;;-5.10;99.90;;;;;;5044824;28;20220;-68
2022/12/13 02:45:02;;;;;;;69.33;31.10;;;-5.10;99.90;;;;;;5078280;28;20303;-69
2022/12/13 02:47:31;;;;;;;70.10;31.90;;;-5.20;99.90;;;;;;5088174;28;20297;-68
2022/12/13 02:50:04;;;;;;;62.43;30.50;;;-5.20;99.90;;;;;;5073957;28;20297;-68
2022/12/13 02:52:32;;;;;;;66.27;29.63;;;-5.20;99.90;;;;;;5087965;28;20347;-68
2022/12/13 02:54:59;;;;;;;60.77;29.10;;;-5.20;99.90;;;;;;5088753;28;20215;-68
2022/12/13 02:57:35;;;;;;;72.20;31.93;;;-5.20;99.90;;;;;;5082896;28;20241;-68
2022/12/13 03:00:33;;;;;;;79.30;32.27;;;-5.20;99.90;;;;;;5087453;28;20292;-68
2022/12/13 03:03:10;;;;;;;64.57;31.20;;;-5.30;99.90;;;;;;5083464;28;20209;-69
2022/12/13 03:08:44;;;;;;;61.10;28.90;;;-5.30;99.90;;;;;;5085656;28;20329;-68
2022/12/13 03:11:14;;;;;;;64.07;29.53;;;-5.30;99.90;;;;;;5089956;28;20629;-69
2022/12/13 03:14:02;;;;;;;69.03;30.57;;;-5.30;99.90;;;;;;5084281;28;20216;-68
2022/12/13 03:16:42;;;;;;;70.10;30.40;;;-5.30;99.90;;;;;;5087531;28;20207;-68
2022/12/13 03:19:11;;;;;;;58.57;29.30;;;-5.40;99.90;;;;;;5089038;28;20296;-68
2022/12/13 03:21:40;;;;;;;62.43;29.23;;;-5.40;99.90;;;;;;5086509;28;20296;-68
2022/12/13 03:24:16;;;;;;;59.80;28.57;;;-5.40;99.90;;;;;;5089586;28;20290;-69
2022/12/13 03:26:43;;;;;;;66.13;29.03;;;-5.40;99.90;;;;;;5086721;28;20220;-68
2022/12/13 03:29:10;;;;;;;62.70;28.23;;;-5.40;99.90;;;;;;5089253;28;20201;-68
2022/12/13 03:31:36;;;;;;;58.90;30.80;;;-5.40;99.90;;;;;;5089183;28;20215;-69
2022/12/13 03:34:03;;;;;;;71.60;32.07;;;-5.40;99.90;;;;;;5090112;28;20218;-68
2022/12/13 03:36:30;;;;;;;64.50;30.17;;;-5.40;99.90;;;;;;5090481;28;20727;-68
2022/12/13 03:38:57;;;;;;;65.13;28.03;;;-5.40;99.90;;;;;;5089974;28;20293;-68
2022/12/13 03:41:32;;;;;;;63.27;30.07;;;-5.40;99.90;;;;;;5085601;28;20641;-67
2022/12/13 03:44:03;;;;;;;62.70;27.40;;;-5.40;99.90;;;;;;5087862;28;20201;-68
2022/12/13 03:46:30;;;;;;;54.87;27.67;;;-5.40;99.90;;;;;;5085871;28;20309;-68
2022/12/13 03:48:57;;;;;;;57.90;25.30;;;-5.40;99.90;;;;;;5085333;28;20210;-69
2022/12/13 03:51:24;;;;;;;54.77;26.07;;;-5.50;99.90;;;;;;5089796;28;20206;-69
2022/12/13 03:53:51;;;;;;;52.93;25.40;;;-5.50;99.90;;;;;;5090462;28;20198;-68
2022/12/13 03:56:17;;;;;;;56.70;25.47;;;-5.50;99.90;;;;;;5069367;28;20202;-69
2022/12/13 03:58:44;;;;;;;57.77;24.47;;;-5.50;99.90;;;;;;5086673;28;20247;-69
2022/12/13 04:01:14;;;;;;;57.97;27.80;;;-5.50;99.90;;;;;;5086199;28;20219;-68
2022/12/13 04:03:44;;;;;;;53.20;24.90;;;-5.50;99.90;;;;;;5087081;28;20818;-67
2022/12/13 04:06:13;;;;;;;58.73;26.50;;;-5.50;99.90;;;;;;5088350;28;20292;-67
2022/12/13 04:08:48;;;;;;;50.60;26.53;;;-5.50;99.90;;;;;;5086279;28;20231;-67
2022/12/13 04:14:10;;;;;;;56.73;25.40;;;-5.50;99.90;;;;;;5086392;28;20245;-68
2022/12/13 04:16:37;;;;;;;57.90;25.45;;;-5.50;99.90;;;;;;5082634;28;20325;-68
2022/12/13 04:19:04;;;;;;;46.83;23.17;;;-5.50;99.90;;;;;;5082958;28;20274;-68
2022/12/13 04:21:31;;;;;;;53.50;23.20;;;-5.50;99.90;;;;;;5085200;28;20205;-68
2022/12/13 04:23:58;;;;;;;52.63;25.43;;;-5.50;99.90;;;;;;5088016;28;20610;-68
2022/12/13 04:26:27;;;;;;;63.50;25.50;;;-5.50;99.90;;;;;;5084849;28;20211;-68
2022/12/13 04:28:54;;;;;;;51.03;25.47;;;-5.60;99.90;;;;;;5083448;28;20290;-68
2022/12/13 04:31:20;;;;;;;60.53;24.60;;;-5.60;99.90;;;;;;5061640;28;20231;-68
2022/12/13 04:33:47;;;;;;;54.73;24.97;;;-5.60;99.90;;;;;;5088063;28;20617;-68
2022/12/13 04:36:18;;;;;;;53.50;24.50;;;-5.60;99.90;;;;;;5082231;28;20239;-68
2022/12/13 04:38:59;;;;;;;52.13;24.13;;;-5.60;99.90;;;;;;5084276;28;20723;-68
2022/12/13 04:41:26;;;;;;;55.47;24.30;;;-5.60;99.90;;;;;;5087071;28;20208;-68
2022/12/13 04:44:00;;;;;;;49.00;23.23;;;-5.70;99.90;;;;;;5086762;28;20267;-67
2022/12/13 04:46:27;;;;;;;58.93;25.77;;;-5.70;99.90;;;;;;5083114;28;20200;-69
2022/12/13 04:48:54;;;;;;;61.63;25.77;;;-5.70;99.90;;;;;;5088791;28;20664;-69
2022/12/13 04:51:20;;;;;;;57.27;27.23;;;-5.60;99.90;;;;;;5083265;28;20363;-67
2022/12/13 04:53:47;;;;;;;67.37;27.60;;;-5.70;99.90;;;;;;5083348;28;20613;-69
2022/12/13 04:56:14;;;;;;;56.33;28.00;;;-5.70;99.90;;;;;;5085586;28;20566;-69
2022/12/13 04:58:41;;;;;;;62.43;29.93;;;-5.70;99.90;;;;;;5088776;28;20221;-68
2022/12/13 05:01:09;;;;;;;64.60;25.77;;;-5.70;99.90;;;;;;5086433;28;20664;-67
2022/12/13 05:03:37;;;;;;;61.40;27.10;;;-5.70;99.90;;;;;;5087904;28;20214;-67
2022/12/13 05:06:09;;;;;;;58.70;27.23;;;-5.60;99.90;;;;;;5084076;28;20625;-69
2022/12/13 05:08:53;;;;;;;58.93;26.23;;;-5.70;99.90;;;;;;5087522;28;20247;-69
2022/12/13 05:11:20;;;;;;;58.77;27.53;;;-5.60;99.90;;;;;;5089271;28;20288;-69
2022/12/13 05:13:48;;;;;;;62.23;27.60;;;-5.60;99.90;;;;;;5085699;28;20210;-69
2022/12/13 05:16:15;;;;;;;59.77;27.23;;;-5.70;99.90;;;;;;5085844;28;20613;-69
2022/12/13 05:18:42;;;;;;;65.07;27.30;;;-5.70;99.90;;;;;;5087437;28;20237;-68
2022/12/13 05:21:10;;;;;;;55.97;25.50;;;-5.70;99.90;;;;;;5087096;28;20634;-69
2022/12/13 05:23:37;;;;;;;66.83;27.20;;;-5.70;99.90;;;;;;5086901;28;20192;-69
2022/12/13 05:26:04;;;;;;;60.53;27.17;;;-5.60;99.90;;;;;;5073356;28;20209;-67
2022/12/13 05:28:32;;;;;;;63.87;26.23;;;-5.60;99.90;;;;;;5092195;28;20379;-67
2022/12/13 05:31:07;;;;;;;64.00;26.83;;;-5.60;99.90;;;;;;5090237;28;20200;-68
2022/12/13 05:33:50;;;;;;;68.10;29.07;;;-5.60;99.90;;;;;;5088235;28;20250;-67
2022/12/13 05:36:17;;;;;;;60.97;27.23;;;-5.60;99.90;;;;;;5069857;28;20235;-68
2022/12/13 05:38:44;;;;;;;62.57;26.73;;;-5.60;99.90;;;;;;5087107;28;20649;-67
2022/12/13 05:41:15;;;;;;;63.73;26.37;;;-5.60;99.90;;;;;;5088371;28;20517;-67
2022/12/13 05:43:42;;;;;;;65.03;27.17;;;-5.70;99.90;;;;;;5090592;28;20210;-67
2022/12/13 05:46:11;;;;;;;59.97;26.87;;;-5.60;99.90;;;;;;5089916;28;20283;-67
2022/12/13 05:48:38;;;;;;;69.53;29.30;;;-5.60;99.90;;;;;;5091212;28;20567;-67
2022/12/13 05:51:05;;;;;;;66.67;27.93;;;-5.60;99.90;;;;;;5092202;28;20205;-67
2022/12/13 05:53:40;;;;;;;61.10;25.63;;;-5.60;99.90;;;;;;5090904;28;20209;-68
2022/12/13 05:56:09;;;;;;;57.50;25.70;;;-5.60;99.90;;;;;;5092508;28;20728;-68
2022/12/13 05:58:38;;;;;;;65.53;25.73;;;-5.60;99.90;;;;;;5090736;28;20224;-69
2022/12/13 06:01:10;;;;;;;62.63;27.17;;;-5.60;99.90;;;;;;5092472;28;20621;-68
2022/12/13 06:03:38;;;;;;;75.07;27.40;;;-5.70;99.90;;;;;;5091529;28;20209;-67
2022/12/13 06:06:07;;;;;;;59.13;26.57;;;-5.70;99.90;;;;;;5090507;28;20240;-68
2022/12/13 06:08:35;;;;;;;62.67;26.97;;;-5.70;99.90;;;;;;5089604;28;20630;-68
2022/12/13 06:11:03;;;;;;;61.07;26.33;;;-5.70;99.90;;;;;;5091379;28;20262;-68
2022/12/13 06:13:42;;;;;;;60.93;26.77;;;-5.70;99.90;;;;;;5074545;28;20222;-68
2022/12/13 06:16:11;;;;;;;62.57;25.27;;;-5.70;99.90;;;;;;5069715;28;20204;-69
2022/12/13 06:18:49;;;;;;;56.70;25.47;;;-5.70;99.90;;;;;;5087008;28;20604;-68
2022/12/13 06:21:17;;;;;;;59.27;24.87;;;-5.70;99.90;;;;;;5088667;28;20197;-67
2022/12/13 06:23:44;;;;;;;58.80;25.77;;;-5.70;99.90;;;;;;5092734;28;20209;-68
2022/12/13 06:26:10;;;;;;;64.77;24.87;;;-5.70;99.90;;;;;;5090904;28;20210;-68
2022/12/13 06:28:37;;;;;;;53.03;24.93;;;-5.70;99.90;;;;;;5090868;28;20589;-68
2022/12/13 06:31:04;;;;;;;57.77;26.57;;;;;;;;;;5090622;28;20211;-69
2022/12/13 06:33:35;;;;;;;58.20;24.80;;;-5.90;99.90;;;;;;5090061;28;20210;-69
2022/12/13 06:36:03;;;;;;;61.37;26.13;;;-5.90;99.90;;;;;;5086213;28;20224;-68
2022/12/13 06:38:31;;;;;;;57.93;23.47;;;-5.90;99.90;;;;;;5085850;28;20221;-69
2022/12/13 06:41:13;;;;;;;64.10;25.00;;;-5.90;99.90;;;;;;5090536;28;20204;-68
2022/12/13 06:43:45;;;;;;;63.05;27.92;;;-5.90;99.90;;;;;;5086382;28;20527;-69
2022/12/13 06:46:12;;;;;;;65.27;27.40;;;-5.90;99.90;;;;;;5072798;28;20240;-68
2022/12/13 06:48:39;;;;;;;48.70;23.83;;;-5.90;99.90;;;;;;5072540;28;20225;-69
2022/12/13 06:51:07;;;;;;;61.13;27.83;;;-5.90;99.90;;;;;;5089549;28;20472;-68
2022/12/13 06:53:36;;;;;;;66.10;26.40;;;-5.90;99.90;;;;;;5089619;28;20712;-68
2022/12/13 06:56:04;;;;;;;69.23;27.10;;;-5.90;99.90;;;;;;5083963;28;20200;-67
2022/12/13 06:58:32;;;;;;;64.87;28.43;;;-5.90;99.90;;;;;;5060697;28;20236;-67
2022/12/13 07:01:14;;;;;;;62.80;27.30;;;-5.90;99.90;;;;;;5077191;28;20838;-67
2022/12/13 07:03:52;;;;;;;60.47;26.20;;;-5.90;99.90;;;;;;5083004;28;20217;-67
2022/12/13 07:06:21;;;;;;;58.80;26.97;;;-5.90;99.90;;;;;;5085803;28;20217;-72
2022/12/13 07:08:56;;;;;;;63.13;28.40;;;-5.80;99.90;;;;;;5088143;28;20318;-67
2022/12/13 07:11:29;;;;;;;53.67;25.63;;;-5.80;99.90;;;;;;5087353;28;20561;-67
2022/12/13 07:13:56;;;;;;;67.60;26.83;;;-5.80;99.90;;;;;;5084256;28;20743;-68
2022/12/13 07:16:23;;;;;;;56.37;26.47;;;-5.80;99.90;;;;;;5086388;28;20646;-67
2022/12/13 07:18:59;;;;;;;65.13;26.33;;;-5.80;99.90;;;;;;5087727;28;20297;-69
2022/12/13 07:21:28;;;;;;;66.33;27.23;;;-5.90;99.90;;;;;;5087366;28;20196;-68
2022/12/13 07:23:55;;;;;;;62.67;26.20;;;-5.90;99.90;;;;;;5088263;28;20203;-67
2022/12/13 07:26:22;;;;;;;59.93;26.03;;;-5.90;99.90;;;;;;5087235;28;20303;-67
2022/12/13 07:28:49;;;;;;;57.87;24.30;;;-5.90;99.90;;;;;;5068321;28;20235;-67
2022/12/13 07:31:22;;;;;;;62.43;25.70;;;-5.90;99.90;;;;;;5081240;28;20640;-69
2022/12/13 07:33:50;;;;;;;61.63;26.03;;;-5.90;99.90;;;;;;5088410;28;20204;-68
2022/12/13 07:36:20;;;;;;;63.80;24.43;;;-5.90;99.90;;;;;;5086477;28;20660;-68
2022/12/13 07:38:53;;;;;;;63.63;26.53;;;-5.90;99.90;;;;;;5088226;28;20302;-68
2022/12/13 07:41:21;;;;;;;60.00;25.03;;;-5.90;99.90;;;;;;5085028;28;20646;-69
2022/12/13 07:43:50;;;;;;;63.20;25.30;;;-5.90;99.90;;;;;;5086656;28;20279;-68
2022/12/13 07:46:21;;;;;;;59.40;24.37;;;-5.90;99.90;;;;;;5088294;28;20207;-69
2022/12/13 07:49:01;;;;;;;54.00;24.47;;;-5.90;99.90;;;;;;5086525;28;20200;-69
2022/12/13 07:51:28;;;;;;;53.50;23.67;;;-5.90;99.90;;;;;;5088697;28;20270;-68
2022/12/13 07:53:56;;;;;;;60.03;25.37;;;-5.90;99.90;;;;;;5084909;28;20205;-68
2022/12/13 07:56:22;;;;;;;58.20;26.00;;;-5.90;99.90;;;;;;5086276;28;20204;-68
2022/12/13 07:58:49;;;;;;;56.20;25.97;;;-6.00;99.90;;;;;;5086755;28;20205;-68
2022/12/13 08:01:17;;;;;;;60.23;26.80;;;-6.00;99.90;;;;;;5087643;28;20200;-68
2022/12/13 08:03:46;;;;;;;59.93;24.87;;;-6.00;99.90;;;;;;5088872;28;20223;-68
2022/12/13 08:06:13;;;;;;;57.70;25.77;;;-5.90;99.90;;;;;;5086567;28;20213;-68
2022/12/13 08:08:40;;;;;;;64.63;27.60;;;-5.90;99.90;;;;;;5084788;28;20308;-67
2022/12/13 08:11:09;;;;;;;70.10;28.70;;;-5.90;99.90;;;;;;5071161;28;20235;-67
2022/12/13 08:13:37;;;;;;;69.23;29.00;;;-5.90;99.90;;;;;;5081222;28;20388;-67
2022/12/13 08:16:06;;;;;;;68.87;28.53;;;-5.90;99.90;;;;;;5085642;28;20280;-69
2022/12/13 08:18:53;;;;;;;58.03;26.50;;;-5.80;99.90;;;;;;5087877;28;20232;-69
2022/12/13 08:21:40;;;;;;;64.60;28.23;;;-5.80;99.90;;;;;;5070936;28;20197;-68
2022/12/13 08:24:29;;;;;;;64.90;26.10;;;-5.80;99.90;;;;;;5085927;28;20597;-67
2022/12/13 08:27:00;;;;;;;60.30;27.17;;;-5.80;99.90;;;;;;5070199;28;20213;-68
2022/12/13 08:29:30;;;;;;;59.90;26.47;;;-5.70;99.90;;;;;;5088901;28;20191;-68
2022/12/13 08:32:06;;;;;;;59.87;27.00;;;-5.70;99.90;;;;;;5086917;28;20206;-68
2022/12/13 08:34:33;;;;;;;59.77;27.63;;;-5.70;99.90;;;;;;5085906;28;20203;-68
2022/12/13 08:37:00;;;;;;;64.23;27.97;;;-5.70;99.90;;;;;;5084942;28;20307;-67
2022/12/13 08:39:35;;;;;;;61.07;28.03;;;-5.60;99.90;;;;;;5085836;28;20286;-68
2022/12/13 08:42:09;;;;;;;67.07;27.97;;;-5.60;99.90;;;;;;5089030;28;20211;-67
2022/12/13 08:44:43;;;;;;;69.03;28.23;;;-5.50;99.90;;;;;;5088681;28;20561;-68
2022/12/13 08:47:10;;;;;;;58.13;26.47;;;-5.50;99.90;;;;;;5086888;28;20198;-67
2022/12/13 08:49:37;;;;;;;55.73;25.97;;;-5.50;99.90;;;;;;5087753;28;20198;-68
2022/12/13 08:52:04;;;;;;;57.60;29.23;;;-5.50;99.90;;;;;;5087068;28;20291;-68
2022/12/13 08:54:32;;;;;;;65.47;28.27;;;-5.40;99.90;;;;;;5067813;28;20192;-68
2022/12/13 08:56:59;;;;;;;56.77;28.23;;;-5.40;99.90;;;;;;5087638;28;20336;-67
2022/12/13 08:59:26;;;;;;;65.80;28.67;;;-5.40;99.90;;;;;;5082409;28;20228;-68
2022/12/13 09:01:52;;;;;;;57.33;25.97;;;-5.40;99.90;;;;;;5069269;28;20212;-67
2022/12/13 09:04:22;;;;;;;68.27;30.20;;;-5.30;99.90;;;;;;5085349;28;20202;-68
2022/12/13 09:06:57;;;;;;;64.13;28.97;;;-5.30;99.90;;;;;;5086287;28;20244;-67
2022/12/13 09:09:28;;;;;;;63.27;29.20;;;-5.20;99.90;;;;;;5084123;28;20220;-68
2022/12/13 09:11:55;;;;;;;68.33;28.83;;;-5.20;99.90;;;;;;5082536;28;20284;-67
2022/12/13 09:14:26;;;;;;;74.10;30.70;;;-5.20;99.90;;;;;;5083579;28;20201;-67
2022/12/13 09:17:01;;;;;;;66.73;29.90;;;-5.10;99.90;;;;;;5084384;28;20221;-67
2022/12/13 09:19:29;;;;;;;70.40;30.50;;;-5.00;99.90;;;;;;5086124;28;20245;-68
2022/12/13 09:22:04;;;;;;;67.67;31.60;;;-5.00;99.90;;;;;;5086334;28;20213;-66
2022/12/13 09:24:31;;;;;;;61.30;30.43;;;-5.00;99.90;;;;;;5088454;28;20194;-68
2022/12/13 09:27:05;;;;;;;73.90;34.13;;;-4.90;99.90;;;;;;5065664;28;20223;-68
2022/12/13 09:29:37;;;;;;;85.33;35.80;;;-4.90;99.90;;;;;;5087030;28;20623;-68
2022/12/13 09:32:04;;;;;;;74.87;33.27;;;-4.70;99.90;;;;;;5085310;28;20323;-68
2022/12/13 09:34:33;;;;;;;82.20;34.13;;;-4.70;99.90;;;;;;5068545;28;20254;-68
2022/12/13 09:37:00;;;;;;;78.30;33.73;;;-4.70;99.90;;;;;;5069387;28;20196;-68
2022/12/13 09:39:28;;;;;;;80.40;34.17;;;-4.70;99.90;;;;;;5088380;28;20288;-67
2022/12/13 09:41:56;;;;;;;81.27;34.80;;;-4.60;99.90;;;;;;5066327;28;20736;-68
2022/12/13 09:44:27;;;;;;;90.30;36.70;;;;;;;;;;5084410;28;20287;-67
2022/12/13 09:47:02;;;;;;;88.93;39.63;;;-4.50;99.90;;;;;;5085592;28;20240;-68
2022/12/13 09:49:43;;;;;;;101.00;41.47;;;-4.40;99.90;;;;;;5086502;28;20203;-68
2022/12/13 09:52:18;;;;;;;90.13;38.73;;;-4.30;99.90;;;;;;5086403;28;20530;-68
2022/12/13 09:54:50;;;;;;;91.70;38.47;;;-4.20;99.90;;;;;;5087116;28;20202;-69
2022/12/13 09:57:21;;;;;;;94.43;38.23;;;-4.20;99.90;;;;;;5084016;28;20200;-69
2022/12/13 10:00:04;;;;;;;87.20;35.87;;;-4.10;99.90;;;;;;5086357;28;20238;-69
2022/12/13 10:02:36;;;;;;;92.20;37.10;;;-4.00;99.90;;;;;;5086706;28;20221;-67
2022/12/13 10:05:18;;;;;;;82.97;36.47;;;-4.00;99.90;;;;;;5060049;28;20218;-69
2022/12/13 10:07:52;;;;;;;104.37;38.03;;;-3.90;99.90;;;;;;5086738;28;20634;-67
2022/12/13 10:10:20;;;;;;;94.77;38.87;;;-3.90;99.90;;;;;;5084991;28;20715;-66
2022/12/13 10:12:54;;;;;;;103.63;39.10;;;-3.80;99.90;;;;;;5089542;28;20307;-67
2022/12/13 10:15:23;;;;;;;94.90;38.53;;;-3.80;99.90;;;;;;5078959;28;20286;-69
2022/12/13 10:17:49;;;;;;;111.97;40.67;;;-3.70;99.90;;;;;;5068354;28;20200;-67
2022/12/13 10:20:27;;;;;;;107.37;41.30;;;-3.60;99.90;;;;;;5080040;28;20691;-69
2022/12/13 10:22:54;;;;;;;109.50;43.90;;;-3.50;99.90;;;;;;5084547;28;20242;-67
2022/12/13 10:25:53;;;;;;;106.90;44.03;;;-3.40;99.90;;;;;;5077833;28;20268;-67
2022/12/13 10:28:32;;;;;;;106.70;42.30;;;-3.30;99.90;;;;;;5069231;28;20224;-67
2022/12/13 10:30:59;;;;;;;105.60;41.30;;;-3.30;99.90;;;;;;5083576;28;20205;-68
2022/12/13 10:33:30;;;;;;;98.63;40.37;;;-3.20;99.90;;;;;;5089863;28;20227;-68
2022/12/13 10:36:33;;;;;;;104.17;40.70;;;-3.10;99.90;;;;;;5086857;28;20613;-69
2022/12/13 10:39:01;;;;;;;106.10;40.60;;;-3.10;99.90;;;;;;5085596;28;20228;-67
2022/12/13 10:41:36;;;;;;;99.57;40.83;;;-3.00;99.90;;;;;;5090221;28;21089;-67
2022/12/13 10:44:23;;;;;;;123.57;44.00;;;-3.00;99.90;;;;;;5086949;28;20208;-69
2022/12/13 10:47:09;;;;;;;99.77;40.33;;;-2.90;99.90;;;;;;5084973;28;20216;-68
2022/12/13 10:49:45;;;;;;;108.23;41.03;;;-2.80;99.90;;;;;;5088881;28;20287;-69
2022/12/13 10:52:30;;;;;;;97.50;41.07;;;-2.80;99.90;;;;;;5069286;28;20755;-68
2022/12/13 10:55:16;;;;;;;112.00;42.50;;;-2.70;99.90;;;;;;5086243;28;20206;-68
2022/12/13 10:58:08;;;;;;;114.33;41.83;;;-2.60;99.90;;;;;;5084804;28;20702;-68
2022/12/13 11:00:44;;;;;;;107.17;40.80;;;-2.60;99.90;;;;;;5078161;28;20220;-69
2022/12/13 11:03:31;;;;;;;106.80;42.10;;;-2.50;99.90;;;;;;5088954;28;20215;-69
2022/12/13 11:06:14;;;;;;;99.20;38.80;;;-2.40;99.90;;;;;;5084757;28;20548;-68
2022/12/13 11:08:41;;;;;;;105.13;40.87;;;-2.40;99.90;;;;;;5084561;28;20199;-68
2022/12/13 11:11:09;;;;;;;101.33;39.33;;;-2.30;99.90;;;;;;5068372;28;20236;-67
2022/12/13 11:13:52;;;;;;;98.27;39.50;;;-2.30;99.90;;;;;;5089841;28;20702;-68
2022/12/13 11:16:24;;;;;;;102.67;38.80;;;-2.30;99.90;;;;;;5084950;28;20261;-67
2022/12/13 11:18:57;;;;;;;92.90;38.20;;;-2.20;99.90;;;;;;5074806;28;20221;-68
2022/12/13 11:21:27;;;;;;;95.30;38.07;;;-2.20;99.90;;;;;;5086788;28;20572;-68
2022/12/13 11:23:57;;;;;;;98.83;37.67;;;-2.10;99.90;;;;;;5086264;28;20283;-68
2022/12/13 11:26:29;;;;;;;97.67;38.73;;;-2.10;99.90;;;;;;5081356;28;20199;-68
2022/12/13 11:29:34;;;;;;;98.07;39.80;;;-2.00;99.90;;;;;;5069805;28;20236;-68
2022/12/13 11:32:15;;;;;;;99.27;40.10;;;-2.00;99.90;;;;;;5086872;28;20231;-68
2022/12/13 11:34:54;;;;;;;94.53;38.80;;;-1.90;99.90;;;;;;5081504;28;20205;-68
2022/12/13 11:37:40;;;;;;;96.27;37.43;;;-1.90;99.90;;;;;;5084196;28;20208;-68
2022/12/13 11:40:18;;;;;;;90.37;39.00;;;-1.80;99.90;;;;;;5066959;28;20232;-68
2022/12/13 11:43:26;;;;;;;78.77;36.43;;;-1.80;99.90;;;;;;5065061;28;20269;-68
2022/12/13 11:45:57;;;;;;;80.17;35.93;;;-1.80;99.90;;;;;;4971355;28;20216;-68
2022/12/13 11:48:39;;;;;;;85.93;37.23;;;-1.80;99.90;;;;;;5068095;28;20670;-67
2022/12/13 11:51:10;;;;;;;89.57;36.17;;;-1.80;99.90;;;;;;5081928;28;20294;-68
2022/12/13 11:53:59;;;;;;;84.40;36.73;;;-1.80;99.90;;;;;;5083058;28;20236;-67
2022/12/13 11:56:40;;;;;;;84.13;37.67;;;-1.70;99.90;;;;;;5087330;28;20220;-68
2022/12/13 11:59:28;;;;;;;79.43;36.43;;;-1.70;99.90;;;;;;5086917;28;20243;-68
2022/12/13 12:02:10;;;;;;;80.07;36.33;;;-1.60;99.90;;;;;;5084023;28;20204;-67
2022/12/13 12:04:51;;;;;;;90.00;37.03;;;-1.60;99.90;;;;;;5074985;28;20300;-67
2022/12/13 12:07:40;;;;;;;81.03;36.90;;;-1.60;99.90;;;;;;5086328;28;20383;-68
2022/12/13 12:10:33;;;;;;;74.13;35.00;;;-1.60;99.90;;;;;;5084462;28;20204;-68
2022/12/13 12:13:21;;;;;;;80.03;35.53;;;-1.60;99.90;;;;;;5086469;28;20706;-67
2022/12/13 12:16:00;;;;;;;80.80;36.60;;;;;;;;;;5086218;28;20248;-67
2022/12/13 12:18:27;;;;;;;75.87;35.53;;;-1.60;99.90;;;;;;5088073;28;20196;-67
2022/12/13 12:21:28;;;;;;;80.43;35.13;;;-1.50;99.90;;;;;;5087869;28;20223;-67
2022/12/13 12:24:56;;;;;;;82.77;37.33;;;-1.50;99.90;;;;;;5087924;28;20207;-68
2022/12/13 12:27:49;;;;;;;79.90;36.57;;;-1.50;99.90;;;;;;5088072;28;20318;-68
2022/12/13 12:30:19;;;;;;;82.00;34.50;;;-1.50;99.90;;;;;;5088200;28;20214;-68
2022/12/13 12:33:11;;;;;;;82.63;35.60;;;-1.40;99.90;;;;;;5087432;28;20643;-67
2022/12/13 12:35:57;;;;;;;77.17;33.50;;;-1.40;99.90;;;;;;5085987;28;20221;-68
2022/12/13 12:38:53;;;;;;;75.17;36.10;;;-1.40;99.90;;;;;;5068732;28;20213;-68
2022/12/13 12:41:46;;;;;;;80.17;35.17;;;-1.30;99.90;;;;;;5031878;28;20215;-69
2022/12/13 12:44:35;;;;;;;76.77;35.50;;;-1.30;99.90;;;;;;5084755;28;20212;-68
2022/12/13 12:47:21;;;;;;;73.63;33.47;;;-1.30;99.90;;;;;;5085271;28;20204;-68
2022/12/13 12:50:17;;;;;;;73.87;34.17;;;-1.20;99.90;;;;;;5086036;28;20216;-68
2022/12/13 12:52:58;;;;;;;72.53;33.30;;;-1.20;99.90;;;;;;5088456;28;20201;-68
2022/12/13 12:55:59;;;;;;;72.43;33.90;;;-1.10;99.90;;;;;;5088081;28;20304;-68
2022/12/13 12:58:32;;;;;;;65.90;32.10;;;-1.10;99.90;;;;;;5072018;28;20210;-67
2022/12/13 13:01:24;;;;;;;63.17;31.80;;;-1.10;99.90;;;;;;5081162;28;20401;-68
2022/12/13 13:03:53;;;;;;;73.37;32.23;;;-1.10;99.90;;;;;;5085996;28;20190;-67
2022/12/13 13:06:36;;;;;;;68.70;33.37;;;-1.00;99.90;;;;;;5086753;28;20229;-68